sensor_id;sensor_type;location;lat;lon;timestamp;pressure;altitude;pressure_sealevel;temperature;humidity
11038;BME280;5572;49.540;11.932;2023-03-23T00:01:48;95703.09;;;6.62;100.00
11038;BME280;5572;49.540;11.932;2023-03-23T00:04:16;95721.03;;;6.66;100.00
11038;BME280;5572;49.540;11.932;2023-03-23T00:06:42;95718.06;;;6.68;100.00
11038;BME280;5572;49.540;11.932;2023-03-23T00:09:11;95723.19;;;6.64;100.00
11038;BME280;5572;49.540;11.932;2023-03-23T00:11:37;95721.56;;;6.68;100.00
11038;BME280;5572;49.540;11.932;2023-03-23T00:14:04;95714.91;;;6.84;100.00
11038;BME280;5572;49.540;11.932;2023-03-23T00:16:33;95716.75;;;6.88;100.00
11038;BME280;5572;49.540;11.932;2023-03-23T00:19:03;95718.06;;;6.91;100.00
11038;BME280;5572;49.540;11.932;2023-03-23T00:21:34;95718.56;;;6.93;100.00
11038;BME280;5572;49.540;11.932;2023-03-23T00:24:06;95731.25;;;6.87;100.00
11038;BME280;5572;49.540;11.932;2023-03-23T00:26:34;95722.56;;;6.95;100.00
11038;BME280;5572;49.540;11.932;2023-03-23T00:29:02;95729.38;;;6.88;100.00
11038;BME280;5572;49.540;11.932;2023-03-23T00:31:30;95729.44;;;6.83;100.00
11038;BME280;5572;49.540;11.932;2023-03-23T00:33:59;95731.78;;;6.89;100.00
11038;BME280;5572;49.540;11.932;2023-03-23T00:36:29;95726.56;;;6.75;100.00
11038;BME280;5572;49.540;11.932;2023-03-23T00:38:56;95724.50;;;6.90;100.00
11038;BME280;5572;49.540;11.932;2023-03-23T00:41:25;95726.84;;;6.96;100.00
11038;BME280;5572;49.540;11.932;2023-03-23T00:43:53;95731.59;;;6.81;100.00
11038;BME280;5572;49.540;11.932;2023-03-23T00:46:20;95731.06;;;6.79;100.00
11038;BME280;5572;49.540;11.932;2023-03-23T00:48:48;95738.75;;;6.67;100.00
11038;BME280;5572;49.540;11.932;2023-03-23T00:51:17;95731.16;;;6.74;100.00
11038;BME280;5572;49.540;11.932;2023-03-23T00:53:44;95736.00;;;6.72;100.00
11038;BME280;5572;49.540;11.932;2023-03-23T00:56:11;95731.91;;;6.80;100.00
11038;BME280;5572;49.540;11.932;2023-03-23T00:58:38;95722.53;;;6.77;100.00
11038;BME280;5572;49.540;11.932;2023-03-23T01:01:05;95732.47;;;6.77;100.00
11038;BME280;5572;49.540;11.932;2023-03-23T01:03:32;95735.09;;;6.58;100.00
11038;BME280;5572;49.540;11.932;2023-03-23T01:06:04;95736.84;;;6.68;100.00
11038;BME280;5572;49.540;11.932;2023-03-23T01:08:34;95738.16;;;6.70;100.00
11038;BME280;5572;49.540;11.932;2023-03-23T01:11:05;95729.78;;;6.77;100.00
11038;BME280;5572;49.540;11.932;2023-03-23T01:13:33;95735.66;;;6.79;100.00
11038;BME280;5572;49.540;11.932;2023-03-23T01:16:17;95742.88;;;6.55;100.00
11038;BME280;5572;49.540;11.932;2023-03-23T01:18:44;95741.91;;;6.46;100.00
11038;BME280;5572;49.540;11.932;2023-03-23T01:21:12;95736.44;;;6.56;100.00
11038;BME280;5572;49.540;11.932;2023-03-23T01:23:42;95733.38;;;6.67;100.00
11038;BME280;5572;49.540;11.932;2023-03-23T01:26:14;95732.78;;;6.70;100.00
11038;BME280;5572;49.540;11.932;2023-03-23T01:28:42;95730.38;;;6.74;100.00
11038;BME280;5572;49.540;11.932;2023-03-23T01:31:13;95727.03;;;6.82;100.00
11038;BME280;5572;49.540;11.932;2023-03-23T01:33:42;95725.44;;;6.81;100.00
11038;BME280;5572;49.540;11.932;2023-03-23T01:36:14;95703.03;;;6.90;100.00
11038;BME280;5572;49.540;11.932;2023-03-23T01:38:44;95715.66;;;6.89;100.00
11038;BME280;5572;49.540;11.932;2023-03-23T01:41:15;95713.72;;;6.72;100.00
11038;BME280;5572;49.540;11.932;2023-03-23T01:43:59;95713.09;;;6.80;100.00
11038;BME280;5572;49.540;11.932;2023-03-23T01:46:31;95664.69;;;6.84;100.00
11038;BME280;5572;49.540;11.932;2023-03-23T01:49:02;95667.84;;;6.68;100.00
11038;BME280;5572;49.540;11.932;2023-03-23T01:51:33;95656.69;;;6.80;100.00
11038;BME280;5572;49.540;11.932;2023-03-23T01:54:05;95668.00;;;6.77;100.00
11038;BME280;5572;49.540;11.932;2023-03-23T01:56:39;95668.00;;;6.77;100.00
11038;BME280;5572;49.540;11.932;2023-03-23T01:59:11;95664.06;;;6.69;100.00
11038;BME280;5572;49.540;11.932;2023-03-23T02:01:39;95660.91;;;6.85;100.00
11038;BME280;5572;49.540;11.932;2023-03-23T02:04:10;95681.00;;;6.70;100.00
11038;BME280;5572;49.540;11.932;2023-03-23T02:06:40;95670.44;;;6.78;100.00
11038;BME280;5572;49.540;11.932;2023-03-23T02:09:27;95661.06;;;6.94;100.00
11038;BME280;5572;49.540;11.932;2023-03-23T02:11:54;95657.47;;;7.03;100.00
11038;BME280;5572;49.540;11.932;2023-03-23T02:14:24;95660.41;;;6.83;100.00
11038;BME280;5572;49.540;11.932;2023-03-23T02:16:56;95662.81;;;6.85;100.00
11038;BME280;5572;49.540;11.932;2023-03-23T02:19:41;95642.19;;;6.81;100.00
11038;BME280;5572;49.540;11.932;2023-03-23T02:22:37;95644.00;;;6.85;100.00
11038;BME280;5572;49.540;11.932;2023-03-23T02:25:24;95640.38;;;6.94;100.00
11038;BME280;5572;49.540;11.932;2023-03-23T02:28:17;95645.47;;;7.14;100.00
11038;BME280;5572;49.540;11.932;2023-03-23T02:31:17;95636.06;;;7.17;100.00
11038;BME280;5572;49.540;11.932;2023-03-23T02:33:59;95640.47;;;7.26;100.00
11038;BME280;5572;49.540;11.932;2023-03-23T02:36:31;95639.59;;;7.31;100.00
11038;BME280;5572;49.540;11.932;2023-03-23T02:39:05;95616.78;;;7.28;100.00
11038;BME280;5572;49.540;11.932;2023-03-23T02:41:40;95614.41;;;7.27;100.00
11038;BME280;5572;49.540;11.932;2023-03-23T02:44:10;95630.25;;;7.47;100.00
11038;BME280;5572;49.540;11.932;2023-03-23T02:46:39;95637.94;;;7.53;100.00
11038;BME280;5572;49.540;11.932;2023-03-23T02:49:09;95634.06;;;7.59;100.00
11038;BME280;5572;49.540;11.932;2023-03-23T02:51:46;95633.41;;;7.67;100.00
11038;BME280;5572;49.540;11.932;2023-03-23T02:54:15;95629.75;;;7.76;100.00
11038;BME280;5572;49.540;11.932;2023-03-23T02:56:48;95638.25;;;7.83;100.00
11038;BME280;5572;49.540;11.932;2023-03-23T02:59:16;95619.75;;;7.64;100.00
11038;BME280;5572;49.540;11.932;2023-03-23T03:01:50;95624.75;;;7.70;100.00
11038;BME280;5572;49.540;11.932;2023-03-23T03:04:23;95623.94;;;7.69;100.00
11038;BME280;5572;49.540;11.932;2023-03-23T03:09:47;95628.94;;;7.76;100.00
11038;BME280;5572;49.540;11.932;2023-03-23T03:12:21;95611.03;;;7.85;100.00
11038;BME280;5572;49.540;11.932;2023-03-23T03:14:58;95616.66;;;7.88;100.00
11038;BME280;5572;49.540;11.932;2023-03-23T03:17:34;95616.38;;;8.03;100.00
11038;BME280;5572;49.540;11.932;2023-03-23T03:20:08;95610.59;;;8.10;100.00
11038;BME280;5572;49.540;11.932;2023-03-23T03:22:38;95608.50;;;8.07;100.00
11038;BME280;5572;49.540;11.932;2023-03-23T03:25:08;95622.47;;;8.09;100.00
11038;BME280;5572;49.540;11.932;2023-03-23T03:27:41;95620.06;;;8.07;100.00
11038;BME280;5572;49.540;11.932;2023-03-23T03:30:13;95613.72;;;8.17;100.00
11038;BME280;5572;49.540;11.932;2023-03-23T03:32:45;95616.41;;;8.17;100.00
11038;BME280;5572;49.540;11.932;2023-03-23T03:35:16;95611.53;;;8.19;100.00
11038;BME280;5572;49.540;11.932;2023-03-23T03:37:45;95605.84;;;8.20;100.00
11038;BME280;5572;49.540;11.932;2023-03-23T03:40:14;95598.28;;;8.36;100.00
11038;BME280;5572;49.540;11.932;2023-03-23T03:42:44;95600.19;;;8.49;100.00
11038;BME280;5572;49.540;11.932;2023-03-23T03:45:13;95606.47;;;8.44;100.00
11038;BME280;5572;49.540;11.932;2023-03-23T03:47:44;95598.59;;;8.48;100.00
11038;BME280;5572;49.540;11.932;2023-03-23T03:50:11;95585.84;;;8.53;100.00
11038;BME280;5572;49.540;11.932;2023-03-23T03:52:39;95595.13;;;8.47;100.00
11038;BME280;5572;49.540;11.932;2023-03-23T03:55:08;95589.50;;;8.44;100.00
11038;BME280;5572;49.540;11.932;2023-03-23T03:57:37;95574.38;;;8.48;100.00
11038;BME280;5572;49.540;11.932;2023-03-23T04:00:05;95576.47;;;8.51;100.00
11038;BME280;5572;49.540;11.932;2023-03-23T04:02:41;95565.88;;;8.54;100.00
11038;BME280;5572;49.540;11.932;2023-03-23T04:05:09;95548.91;;;8.53;100.00
11038;BME280;5572;49.540;11.932;2023-03-23T04:07:39;95561.50;;;8.45;100.00
11038;BME280;5572;49.540;11.932;2023-03-23T04:10:09;95544.25;;;8.32;100.00
11038;BME280;5572;49.540;11.932;2023-03-23T04:12:39;95546.94;;;8.32;100.00
11038;BME280;5572;49.540;11.932;2023-03-23T04:15:07;95551.03;;;8.30;100.00
11038;BME280;5572;49.540;11.932;2023-03-23T04:17:36;95554.50;;;8.17;100.00
11038;BME280;5572;49.540;11.932;2023-03-23T04:20:04;95549.88;;;8.04;100.00
11038;BME280;5572;49.540;11.932;2023-03-23T04:22:38;95551.66;;;7.95;100.00
11038;BME280;5572;49.540;11.932;2023-03-23T04:25:12;95554.47;;;7.90;100.00
11038;BME280;5572;49.540;11.932;2023-03-23T04:27:43;95562.00;;;7.74;100.00
11038;BME280;5572;49.540;11.932;2023-03-23T04:30:12;95567.78;;;7.81;100.00
11038;BME280;5572;49.540;11.932;2023-03-23T04:32:40;95570.28;;;7.78;100.00
11038;BME280;5572;49.540;11.932;2023-03-23T04:35:11;95580.72;;;7.79;100.00
11038;BME280;5572;49.540;11.932;2023-03-23T04:37:40;95575.50;;;8.01;100.00
11038;BME280;5572;49.540;11.932;2023-03-23T04:40:10;95581.59;;;8.07;100.00
11038;BME280;5572;49.540;11.932;2023-03-23T04:42:40;95575.41;;;8.06;100.00
11038;BME280;5572;49.540;11.932;2023-03-23T04:45:11;95559.13;;;8.16;100.00
11038;BME280;5572;49.540;11.932;2023-03-23T04:47:40;95573.22;;;8.08;100.00
11038;BME280;5572;49.540;11.932;2023-03-23T04:50:14;95570.97;;;8.15;100.00
11038;BME280;5572;49.540;11.932;2023-03-23T04:52:50;95582.28;;;8.12;100.00
11038;BME280;5572;49.540;11.932;2023-03-23T04:55:25;95579.44;;;8.36;100.00
11038;BME280;5572;49.540;11.932;2023-03-23T04:57:53;95583.53;;;8.20;100.00
11038;BME280;5572;49.540;11.932;2023-03-23T05:00:25;95584.03;;;8.35;100.00
11038;BME280;5572;49.540;11.932;2023-03-23T05:02:53;95585.22;;;8.29;100.00
11038;BME280;5572;49.540;11.932;2023-03-23T05:05:21;95588.53;;;8.40;100.00
11038;BME280;5572;49.540;11.932;2023-03-23T05:07:53;95580.25;;;8.36;100.00
11038;BME280;5572;49.540;11.932;2023-03-23T05:10:20;95595.25;;;8.10;100.00
11038;BME280;5572;49.540;11.932;2023-03-23T05:12:49;95592.19;;;8.17;100.00
11038;BME280;5572;49.540;11.932;2023-03-23T05:15:19;95600.56;;;8.15;100.00
11038;BME280;5572;49.540;11.932;2023-03-23T05:17:56;95601.78;;;8.23;100.00
11038;BME280;5572;49.540;11.932;2023-03-23T05:20:23;95615.97;;;8.28;100.00
11038;BME280;5572;49.540;11.932;2023-03-23T05:22:50;95612.56;;;8.50;100.00
11038;BME280;5572;49.540;11.932;2023-03-23T05:25:18;95615.97;;;8.55;100.00
11038;BME280;5572;49.540;11.932;2023-03-23T05:27:47;95621.44;;;8.63;100.00
11038;BME280;5572;49.540;11.932;2023-03-23T05:30:20;95622.06;;;8.47;100.00
11038;BME280;5572;49.540;11.932;2023-03-23T05:32:47;95622.63;;;8.44;100.00
11038;BME280;5572;49.540;11.932;2023-03-23T05:35:17;95609.97;;;8.45;100.00
11038;BME280;5572;49.540;11.932;2023-03-23T05:37:45;95611.28;;;8.47;100.00
11038;BME280;5572;49.540;11.932;2023-03-23T05:40:13;95607.19;;;8.50;100.00
11038;BME280;5572;49.540;11.932;2023-03-23T05:42:41;95597.41;;;8.40;100.00
11038;BME280;5572;49.540;11.932;2023-03-23T05:45:09;95596.81;;;8.43;100.00
11038;BME280;5572;49.540;11.932;2023-03-23T05:47:39;95598.50;;;8.53;100.00
11038;BME280;5572;49.540;11.932;2023-03-23T05:50:08;95593.50;;;8.59;100.00
11038;BME280;5572;49.540;11.932;2023-03-23T05:52:36;95600.56;;;8.69;100.00
11038;BME280;5572;49.540;11.932;2023-03-23T05:55:03;95597.78;;;8.87;100.00
11038;BME280;5572;49.540;11.932;2023-03-23T05:57:31;95606.94;;;9.00;100.00
11038;BME280;5572;49.540;11.932;2023-03-23T05:59:58;95606.72;;;9.10;100.00
11038;BME280;5572;49.540;11.932;2023-03-23T06:02:30;95597.75;;;9.36;100.00
11038;BME280;5572;49.540;11.932;2023-03-23T06:05:14;95576.81;;;9.33;100.00
11038;BME280;5572;49.540;11.932;2023-03-23T06:07:41;95555.78;;;9.43;100.00
11038;BME280;5572;49.540;11.932;2023-03-23T06:10:09;95543.03;;;9.57;100.00
11038;BME280;5572;49.540;11.932;2023-03-23T06:12:36;95531.59;;;9.52;100.00
11038;BME280;5572;49.540;11.932;2023-03-23T06:15:03;95527.22;;;9.64;100.00
11038;BME280;5572;49.540;11.932;2023-03-23T06:17:32;95514.03;;;9.63;100.00
11038;BME280;5572;49.540;11.932;2023-03-23T06:19:58;95504.38;;;9.70;100.00
11038;BME280;5572;49.540;11.932;2023-03-23T06:22:26;95502.34;;;9.76;100.00
11038;BME280;5572;49.540;11.932;2023-03-23T06:24:53;95506.28;;;9.70;100.00
11038;BME280;5572;49.540;11.932;2023-03-23T06:27:22;95485.88;;;9.86;100.00
11038;BME280;5572;49.540;11.932;2023-03-23T06:29:50;95497.31;;;9.83;100.00
11038;BME280;5572;49.540;11.932;2023-03-23T06:32:20;95494.03;;;9.94;100.00
11038;BME280;5572;49.540;11.932;2023-03-23T06:34:52;95485.63;;;9.96;100.00
11038;BME280;5572;49.540;11.932;2023-03-23T06:37:19;95482.38;;;10.16;100.00
11038;BME280;5572;49.540;11.932;2023-03-23T06:39:48;95496.19;;;10.53;100.00
11038;BME280;5572;49.540;11.932;2023-03-23T06:42:15;95504.00;;;10.71;100.00
11038;BME280;5572;49.540;11.932;2023-03-23T06:44:42;95485.84;;;10.63;100.00
11038;BME280;5572;49.540;11.932;2023-03-23T06:47:10;95502.59;;;10.91;100.00
11038;BME280;5572;49.540;11.932;2023-03-23T06:49:37;95502.13;;;11.14;100.00
11038;BME280;5572;49.540;11.932;2023-03-23T06:52:05;95483.50;;;11.29;100.00
11038;BME280;5572;49.540;11.932;2023-03-23T06:54:32;95448.16;;;11.51;100.00
11038;BME280;5572;49.540;11.932;2023-03-23T06:57:00;95345.47;;;11.63;100.00
11038;BME280;5572;49.540;11.932;2023-03-23T06:59:26;94985.84;;;11.74;100.00
11038;BME280;5572;49.540;11.932;2023-03-23T07:01:56;94982.03;;;11.63;100.00
11038;BME280;5572;49.540;11.932;2023-03-23T07:04:25;94955.22;;;11.94;100.00
11038;BME280;5572;49.540;11.932;2023-03-23T07:06:53;94944.66;;;12.12;100.00
11038;BME280;5572;49.540;11.932;2023-03-23T07:09:21;94955.50;;;12.12;100.00
11038;BME280;5572;49.540;11.932;2023-03-23T07:11:48;94976.47;;;12.27;100.00
11038;BME280;5572;49.540;11.932;2023-03-23T07:14:18;95006.97;;;12.36;100.00
11038;BME280;5572;49.540;11.932;2023-03-23T07:16:44;95045.38;;;12.38;100.00
11038;BME280;5572;49.540;11.932;2023-03-23T07:19:11;95090.09;;;12.56;100.00
11038;BME280;5572;49.540;11.932;2023-03-23T07:21:37;95111.81;;;12.80;100.00
11038;BME280;5572;49.540;11.932;2023-03-23T07:24:04;95140.53;;;12.81;100.00
11038;BME280;5572;49.540;11.932;2023-03-23T07:26:31;95141.22;;;13.26;100.00
11038;BME280;5572;49.540;11.932;2023-03-23T07:28:58;95186.00;;;13.56;100.00
11038;BME280;5572;49.540;11.932;2023-03-23T07:31:26;95181.38;;;14.07;100.00
11038;BME280;5572;49.540;11.932;2023-03-23T07:33:52;95230.00;;;13.85;100.00
11038;BME280;5572;49.540;11.932;2023-03-23T07:36:25;95268.25;;;13.56;100.00
11038;BME280;5572;49.540;11.932;2023-03-23T07:38:52;95293.94;;;13.71;100.00
11038;BME280;5572;49.540;11.932;2023-03-23T07:41:19;95292.97;;;14.38;100.00
11038;BME280;5572;49.540;11.932;2023-03-23T07:43:45;95312.91;;;14.81;100.00
11038;BME280;5572;49.540;11.932;2023-03-23T07:46:13;95309.25;;;15.90;100.00
11038;BME280;5572;49.540;11.932;2023-03-23T07:48:42;95364.56;;;15.21;100.00
11038;BME280;5572;49.540;11.932;2023-03-23T07:51:09;95414.91;;;14.87;100.00
11038;BME280;5572;49.540;11.932;2023-03-23T07:53:35;95447.34;;;14.80;100.00
11038;BME280;5572;49.540;11.932;2023-03-23T07:56:02;95477.41;;;14.72;100.00
11038;BME280;5572;49.540;11.932;2023-03-23T07:58:29;95495.44;;;14.64;100.00
11038;BME280;5572;49.540;11.932;2023-03-23T08:00:56;95509.25;;;14.83;100.00
11038;BME280;5572;49.540;11.932;2023-03-23T08:03:23;95549.47;;;14.42;100.00
11038;BME280;5572;49.540;11.932;2023-03-23T08:05:50;95571.50;;;14.29;100.00
11038;BME280;5572;49.540;11.932;2023-03-23T08:08:17;95537.22;;;15.71;100.00
11038;BME280;5572;49.540;11.932;2023-03-23T08:10:43;95560.00;;;15.51;100.00
11038;BME280;5572;49.540;11.932;2023-03-23T08:13:10;95554.78;;;16.40;100.00
11038;BME280;5572;49.540;11.932;2023-03-23T08:15:36;95627.97;;;15.00;100.00
11038;BME280;5572;49.540;11.932;2023-03-23T08:18:03;95658.31;;;14.78;100.00
11038;BME280;5572;49.540;11.932;2023-03-23T08:20:30;95676.84;;;14.96;100.00
11038;BME280;5572;49.540;11.932;2023-03-23T08:22:59;95688.63;;;15.00;100.00
11038;BME280;5572;49.540;11.932;2023-03-23T08:25:27;95701.06;;;14.89;100.00
11038;BME280;5572;49.540;11.932;2023-03-23T08:27:57;95730.59;;;14.67;100.00
11038;BME280;5572;49.540;11.932;2023-03-23T08:30:24;95742.81;;;14.93;100.00
11038;BME280;5572;49.540;11.932;2023-03-23T08:32:51;95744.78;;;15.17;100.00
11038;BME280;5572;49.540;11.932;2023-03-23T08:35:19;95751.34;;;15.36;100.00
11038;BME280;5572;49.540;11.932;2023-03-23T08:37:45;95755.88;;;15.68;100.00
11038;BME280;5572;49.540;11.932;2023-03-23T08:40:19;95782.06;;;15.37;100.00
11038;BME280;5572;49.540;11.932;2023-03-23T08:42:49;95805.34;;;15.34;100.00
11038;BME280;5572;49.540;11.932;2023-03-23T08:45:20;95816.63;;;15.56;100.00
11038;BME280;5572;49.540;11.932;2023-03-23T08:47:47;95841.81;;;15.21;100.00
11038;BME280;5572;49.540;11.932;2023-03-23T08:50:20;95861.97;;;14.88;100.00
11038;BME280;5572;49.540;11.932;2023-03-23T08:52:48;95899.69;;;14.49;100.00
11038;BME280;5572;49.540;11.932;2023-03-23T08:55:17;95897.13;;;14.72;100.00
11038;BME280;5572;49.540;11.932;2023-03-23T08:57:44;95915.50;;;14.55;100.00
11038;BME280;5572;49.540;11.932;2023-03-23T09:00:12;95929.31;;;14.50;100.00
11038;BME280;5572;49.540;11.932;2023-03-23T09:02:42;95939.25;;;14.38;100.00
11038;BME280;5572;49.540;11.932;2023-03-23T09:05:10;95943.16;;;14.57;100.00
11038;BME280;5572;49.540;11.932;2023-03-23T09:07:37;95924.69;;;15.12;100.00
11038;BME280;5572;49.540;11.932;2023-03-23T09:10:05;95933.66;;;14.92;100.00
11038;BME280;5572;49.540;11.932;2023-03-23T09:12:33;95920.75;;;15.21;100.00
11038;BME280;5572;49.540;11.932;2023-03-23T09:15:00;95947.47;;;14.58;100.00
11038;BME280;5572;49.540;11.932;2023-03-23T09:17:30;95932.66;;;14.96;100.00
11038;BME280;5572;49.540;11.932;2023-03-23T09:19:57;95924.22;;;15.10;100.00
11038;BME280;5572;49.540;11.932;2023-03-23T09:22:24;95943.13;;;14.86;100.00
11038;BME280;5572;49.540;11.932;2023-03-23T09:24:50;95932.31;;;14.98;100.00
11038;BME280;5572;49.540;11.932;2023-03-23T09:27:17;95944.28;;;15.05;100.00
11038;BME280;5572;49.540;11.932;2023-03-23T09:29:45;95949.38;;;15.07;100.00
11038;BME280;5572;49.540;11.932;2023-03-23T09:32:14;95957.56;;;15.07;100.00
11038;BME280;5572;49.540;11.932;2023-03-23T09:34:40;95962.59;;;14.96;100.00
11038;BME280;5572;49.540;11.932;2023-03-23T09:37:07;95938.00;;;15.66;100.00
11038;BME280;5572;49.540;11.932;2023-03-23T09:39:34;95949.69;;;15.66;100.00
11038;BME280;5572;49.540;11.932;2023-03-23T09:42:14;95963.00;;;15.48;100.00
11038;BME280;5572;49.540;11.932;2023-03-23T09:44:54;95969.47;;;15.75;100.00
11038;BME280;5572;49.540;11.932;2023-03-23T09:47:30;95966.31;;;15.85;100.00
11038;BME280;5572;49.540;11.932;2023-03-23T09:50:03;95963.03;;;15.92;100.00
11038;BME280;5572;49.540;11.932;2023-03-23T09:52:37;95954.84;;;16.36;100.00
11038;BME280;5572;49.540;11.932;2023-03-23T09:55:09;95961.63;;;16.18;100.00
11038;BME280;5572;49.540;11.932;2023-03-23T09:57:49;95958.16;;;16.53;100.00
11038;BME280;5572;49.540;11.932;2023-03-23T10:00:22;95968.63;;;16.51;100.00
11038;BME280;5572;49.540;11.932;2023-03-23T10:02:55;95985.81;;;16.20;100.00
11038;BME280;5572;49.540;11.932;2023-03-23T10:05:29;95981.09;;;16.40;100.00
11038;BME280;5572;49.540;11.932;2023-03-23T10:07:56;95988.50;;;16.76;100.00
11038;BME280;5572;49.540;11.932;2023-03-23T10:10:29;95997.16;;;16.90;100.00
11038;BME280;5572;49.540;11.932;2023-03-23T10:13:01;95995.78;;;17.08;100.00
11038;BME280;5572;49.540;11.932;2023-03-23T10:15:33;96022.84;;;16.41;100.00
11038;BME280;5572;49.540;11.932;2023-03-23T10:18:04;96047.38;;;16.09;100.00
11038;BME280;5572;49.540;11.932;2023-03-23T10:20:43;96030.56;;;16.63;100.00
11038;BME280;5572;49.540;11.932;2023-03-23T10:23:13;96035.13;;;16.47;100.00
11038;BME280;5572;49.540;11.932;2023-03-23T10:25:42;96037.06;;;16.14;100.00
11038;BME280;5572;49.540;11.932;2023-03-23T10:28:13;96046.38;;;16.57;100.00
11038;BME280;5572;49.540;11.932;2023-03-23T10:30:44;96035.19;;;16.27;100.00
11038;BME280;5572;49.540;11.932;2023-03-23T10:33:15;96057.22;;;16.78;100.00
11038;BME280;5572;49.540;11.932;2023-03-23T10:35:50;96026.78;;;17.27;100.00
11038;BME280;5572;49.540;11.932;2023-03-23T10:38:21;96053.00;;;16.92;100.00
11038;BME280;5572;49.540;11.932;2023-03-23T10:40:50;96057.78;;;16.95;100.00
11038;BME280;5572;49.540;11.932;2023-03-23T10:43:19;96076.44;;;16.81;100.00
11038;BME280;5572;49.540;11.932;2023-03-23T10:45:50;96088.22;;;16.61;100.00
11038;BME280;5572;49.540;11.932;2023-03-23T10:48:28;96080.59;;;16.55;100.00
11038;BME280;5572;49.540;11.932;2023-03-23T10:51:00;96061.31;;;16.84;100.00
11038;BME280;5572;49.540;11.932;2023-03-23T10:53:32;96047.56;;;17.04;100.00
11038;BME280;5572;49.540;11.932;2023-03-23T10:55:59;96056.41;;;16.77;100.00
11038;BME280;5572;49.540;11.932;2023-03-23T10:58:27;96047.19;;;17.06;100.00
11038;BME280;5572;49.540;11.932;2023-03-23T11:00:57;96054.38;;;16.86;100.00
11038;BME280;5572;49.540;11.932;2023-03-23T11:03:29;96071.09;;;16.97;100.00
11038;BME280;5572;49.540;11.932;2023-03-23T11:06:02;96051.97;;;17.21;100.00
11038;BME280;5572;49.540;11.932;2023-03-23T11:08:33;96065.84;;;17.27;100.00
11038;BME280;5572;49.540;11.932;2023-03-23T11:11:09;96083.88;;;17.28;100.00
11038;BME280;5572;49.540;11.932;2023-03-23T11:13:38;96087.44;;;16.73;100.00
11038;BME280;5572;49.540;11.932;2023-03-23T11:16:08;96091.91;;;17.01;100.00
11038;BME280;5572;49.540;11.932;2023-03-23T11:18:38;96118.66;;;16.96;100.00
11038;BME280;5572;49.540;11.932;2023-03-23T11:21:07;96120.94;;;17.18;100.00
11038;BME280;5572;49.540;11.932;2023-03-23T11:23:37;96124.19;;;17.31;100.00
11038;BME280;5572;49.540;11.932;2023-03-23T11:26:09;96128.44;;;16.97;100.00
11038;BME280;5572;49.540;11.932;2023-03-23T11:28:38;96139.72;;;16.95;100.00
11038;BME280;5572;49.540;11.932;2023-03-23T11:31:09;96111.25;;;17.08;100.00
11038;BME280;5572;49.540;11.932;2023-03-23T11:33:39;96158.94;;;17.23;100.00
11038;BME280;5572;49.540;11.932;2023-03-23T11:36:07;96145.03;;;16.80;100.00
11038;BME280;5572;49.540;11.932;2023-03-23T11:38:34;96172.06;;;16.73;100.00
11038;BME280;5572;49.540;11.932;2023-03-23T11:41:09;96191.53;;;16.71;100.00
11038;BME280;5572;49.540;11.932;2023-03-23T11:43:40;96196.28;;;16.62;100.00
11038;BME280;5572;49.540;11.932;2023-03-23T11:46:15;96222.13;;;16.44;100.00
11038;BME280;5572;49.540;11.932;2023-03-23T11:48:49;96236.44;;;16.41;100.00
11038;BME280;5572;49.540;11.932;2023-03-23T11:51:22;96229.72;;;16.71;100.00
11038;BME280;5572;49.540;11.932;2023-03-23T11:53:55;96224.06;;;16.76;100.00
11038;BME280;5572;49.540;11.932;2023-03-23T11:56:25;96238.00;;;16.63;100.00
11038;BME280;5572;49.540;11.932;2023-03-23T11:58:54;96236.97;;;16.67;100.00
11038;BME280;5572;49.540;11.932;2023-03-23T12:01:32;96241.66;;;16.67;100.00
11038;BME280;5572;49.540;11.932;2023-03-23T12:06:49;96259.41;;;16.73;100.00
11038;BME280;5572;49.540;11.932;2023-03-23T12:09:28;96283.91;;;16.20;100.00
11038;BME280;5572;49.540;11.932;2023-03-23T12:12:08;96308.72;;;16.27;100.00
11038;BME280;5572;49.540;11.932;2023-03-23T12:14:46;96308.50;;;16.40;100.00
11038;BME280;5572;49.540;11.932;2023-03-23T12:17:23;96294.50;;;16.42;100.00
11038;BME280;5572;49.540;11.932;2023-03-23T12:20:04;96314.81;;;16.24;100.00
11038;BME280;5572;49.540;11.932;2023-03-23T12:22:44;96328.31;;;15.63;100.00
11038;BME280;5572;49.540;11.932;2023-03-23T12:25:32;96322.34;;;15.69;100.00
11038;BME280;5572;49.540;11.932;2023-03-23T12:28:09;96329.28;;;15.50;100.00
11038;BME280;5572;49.540;11.932;2023-03-23T12:30:42;96350.38;;;15.24;100.00
11038;BME280;5572;49.540;11.932;2023-03-23T12:33:27;96336.25;;;15.31;100.00
11038;BME280;5572;49.540;11.932;2023-03-23T12:36:06;96334.97;;;15.03;100.00
11038;BME280;5572;49.540;11.932;2023-03-23T12:38:52;96285.09;;;15.45;100.00
11038;BME280;5572;49.540;11.932;2023-03-23T12:41:23;96278.34;;;15.51;100.00
11038;BME280;5572;49.540;11.932;2023-03-23T12:43:57;96249.88;;;15.97;100.00
11038;BME280;5572;49.540;11.932;2023-03-23T12:46:43;96244.44;;;15.97;100.00
11038;BME280;5572;49.540;11.932;2023-03-23T12:49:16;96230.56;;;16.51;100.00
11038;BME280;5572;49.540;11.932;2023-03-23T12:51:51;96222.50;;;16.55;100.00
11038;BME280;5572;49.540;11.932;2023-03-23T12:54:22;96238.91;;;16.26;100.00
11038;BME280;5572;49.540;11.932;2023-03-23T12:56:53;96233.00;;;16.24;100.00
11038;BME280;5572;49.540;11.932;2023-03-23T12:59:26;96245.25;;;16.18;100.00
11038;BME280;5572;49.540;11.932;2023-03-23T13:01:59;96257.72;;;15.99;100.00
11038;BME280;5572;49.540;11.932;2023-03-23T13:04:34;96254.72;;;15.92;100.00
11038;BME280;5572;49.540;11.932;2023-03-23T13:07:05;96238.25;;;16.29;100.00
11038;BME280;5572;49.540;11.932;2023-03-23T13:09:37;96236.81;;;16.11;100.00
11038;BME280;5572;49.540;11.932;2023-03-23T13:12:08;96261.56;;;15.98;100.00
11038;BME280;5572;49.540;11.932;2023-03-23T13:14:43;96252.63;;;16.18;100.00
11038;BME280;5572;49.540;11.932;2023-03-23T13:17:20;96270.66;;;15.81;100.00
11038;BME280;5572;49.540;11.932;2023-03-23T13:20:01;96271.88;;;15.92;100.00